Time;durP1;ratioP1;P1;durP2;ratioP2;P2;SDS_P1;SDS_P2;PMS_P1;PMS_P2;Temp;Humidity;BMP_temperature;BMP_pressure;BME280_temperature;BME280_humidity;BME280_pressure;Samples;Min_cycle;Max_cycle;Signal;HPM_P1;HPM_P2
2022/06/07 00:02:04;;;;;;;0.37;0.37;;;;;;;-140.05;100.00;61859.38;5091622;28;20191;-67
2022/06/07 00:04:32;;;;;;;0.10;0.10;;;;;;;-140.05;100.00;61859.38;5100551;28;20243;-66
2022/06/07 00:07:00;;;;;;;0.40;0.40;;;;;;;-140.05;100.00;61859.38;5094021;28;20250;-67
2022/06/07 00:09:27;;;;;;;0.33;0.33;;;;;;;-140.05;100.00;61859.38;5091755;28;20183;-66
2022/06/07 00:11:53;;;;;;;0.67;0.67;;;;;;;-140.05;100.00;61859.38;5091323;28;20439;-68
2022/06/07 00:14:20;;;;;;;0.73;0.40;;;;;;;-140.05;100.00;61859.38;5092072;28;20191;-67
2022/06/07 00:16:47;;;;;;;0.43;0.30;;;;;;;-140.05;100.00;61859.38;5091346;28;20199;-65
2022/06/07 00:19:14;;;;;;;0.97;0.70;;;;;;;-140.05;100.00;61859.38;5091563;28;20654;-66
2022/06/07 00:21:41;;;;;;;0.20;0.20;;;;;;;-140.05;100.00;61859.38;5091425;28;20191;-67
2022/06/07 00:24:08;;;;;;;0.93;0.73;;;;;;;-140.05;100.00;61859.38;5091088;28;20658;-68
2022/06/07 00:26:37;;;;;;;0.33;0.33;;;;;;;-140.05;100.00;61859.38;5090992;28;20324;-65
2022/06/07 00:29:08;;;;;;;0.73;0.67;;;;;;;-140.05;100.00;61859.38;5090122;28;20211;-65
2022/06/07 00:31:37;;;;;;;0.30;0.30;;;;;;;-140.05;100.00;61859.38;5091096;28;20245;-68
2022/06/07 00:34:06;;;;;;;0.53;0.53;;;;;;;-140.05;100.00;61859.38;5088543;28;20449;-67
2022/06/07 00:36:34;;;;;;;1.03;0.97;;;;;;;-140.05;100.00;61859.38;5091322;28;20192;-65
2022/06/07 00:39:03;;;;;;;0.57;0.57;;;;;;;-140.05;100.00;61859.38;5090879;28;20690;-63
2022/06/07 00:41:30;;;;;;;0.57;0.50;;;;;;;-140.05;100.00;61859.38;5091056;28;20932;-66
2022/06/07 00:44:22;;;;;;;0.30;0.30;;;;;;;-140.05;100.00;61859.38;5090766;28;20187;-65
2022/06/07 00:46:52;;;;;;;0.30;0.30;;;;;;;-140.05;100.00;61859.38;5089387;28;20219;-65
2022/06/07 00:49:20;;;;;;;0.40;0.40;;;;;;;-140.05;100.00;61859.38;5090905;28;20187;-69
2022/06/07 00:51:48;;;;;;;0.30;0.30;;;;;;;-140.05;100.00;61859.38;5089260;28;20187;-64
2022/06/07 00:54:27;;;;;;;0.40;0.40;;;;;;;-140.05;100.00;61859.38;5089063;28;20219;-69
2022/06/07 00:57:01;;;;;;;0.27;0.27;;;;;;;-140.05;100.00;61859.38;5089259;28;20298;-67
2022/06/07 00:59:33;;;;;;;0.23;0.23;;;;;;;-140.05;100.00;61859.38;5089499;28;20589;-65
2022/06/07 01:02:00;;;;;;;1.33;1.23;;;;;;;-140.05;100.00;61859.38;5090304;28;20187;-68
2022/06/07 01:04:27;;;;;;;0.40;0.40;;;;;;;-140.05;100.00;61859.38;5089264;28;20286;-65
2022/06/07 01:12:34;;;;;;;0.30;0.30;;;;;;;-140.05;100.00;61859.38;5089030;28;20207;-66
2022/06/07 01:15:04;;;;;;;0.60;0.60;;;;;;;-140.05;100.00;61859.38;5090090;28;20297;-69
2022/06/07 01:17:31;;;;;;;0.83;0.77;;;;;;;-140.05;100.00;61859.38;5091139;28;20708;-67
2022/06/07 01:19:58;;;;;;;0.47;0.47;;;;;;;-140.05;100.00;61859.38;5089615;28;20199;-69
2022/06/07 01:22:26;;;;;;;0.50;0.50;;;;;;;-140.05;100.00;61859.38;5088943;28;20211;-69
2022/06/07 01:24:53;;;;;;;0.70;0.53;;;;;;;-140.05;100.00;61859.38;5088718;28;20646;-67
2022/06/07 01:27:21;;;;;;;0.30;0.30;;;;;;;-140.05;100.00;61859.38;5088891;28;20354;-70
2022/06/07 01:29:48;;;;;;;0.67;0.57;;;;;;;-140.05;100.00;61859.38;5089009;28;20264;-70
2022/06/07 01:32:16;;;;;;;0.50;0.40;;;;;;;-140.05;100.00;61859.38;5088510;28;20223;-67
2022/06/07 01:34:45;;;;;;;0.40;0.40;;;;;;;-140.05;100.00;61859.38;5088617;28;20199;-67
2022/06/07 01:37:15;;;;;;;0.83;0.83;;;;;;;-140.05;100.00;61859.38;5105732;28;20202;-67
2022/06/07 01:42:29;;;;;;;0.97;0.80;;;;;;;-140.05;100.00;61859.38;5089844;28;20195;-68
2022/06/07 01:44:56;;;;;;;0.23;0.23;;;;;;;-140.05;100.00;61859.38;5088354;28;20190;-69
2022/06/07 01:47:27;;;;;;;1.03;0.97;;;;;;;-140.05;100.00;61859.38;5088422;28;20693;-67
2022/06/07 01:49:58;;;;;;;0.77;0.77;;;;;;;-140.05;100.00;61859.38;5088379;28;20433;-68
2022/06/07 01:52:29;;;;;;;0.30;0.30;;;;;;;-140.05;100.00;61859.38;5089347;28;20192;-70
2022/06/07 01:55:05;;;;;;;0.83;0.50;;;;;;;-140.05;100.00;61859.38;5088238;28;20528;-67
2022/06/07 01:57:38;;;;;;;1.30;1.20;;;;;;;-140.05;100.00;61859.38;5088665;28;20456;-68
2022/06/07 02:00:10;;;;;;;0.73;0.73;;;;;;;-140.05;100.00;61859.38;5089786;28;20684;-67
2022/06/07 02:02:39;;;;;;;0.30;0.30;;;;;;;-140.05;100.00;61859.38;5091210;28;20441;-68
2022/06/07 02:05:08;;;;;;;0.50;0.47;;;;;;;-140.05;100.00;61859.38;5088463;28;20523;-69
2022/06/07 02:07:36;;;;;;;0.47;0.47;;;;;;;-140.05;100.00;61859.38;5088227;28;20491;-70
2022/06/07 02:10:07;;;;;;;0.20;0.20;;;;;;;-140.05;100.00;61859.38;5088165;28;21026;-68
2022/06/07 02:12:34;;;;;;;0.50;0.50;;;;;;;-140.05;100.00;61859.38;5088405;28;20457;-70
2022/06/07 02:15:03;;;;;;;1.17;0.77;;;;;;;-140.05;100.00;61859.38;5089742;28;20476;-67
2022/06/07 02:17:30;;;;;;;1.70;0.77;;;;;;;-140.05;100.00;61859.38;5088230;28;20971;-66
2022/06/07 02:20:16;;;;;;;0.30;0.30;;;;;;;-140.05;100.00;61859.38;5088342;28;20198;-67
2022/06/07 02:22:43;;;;;;;1.63;1.53;;;;;;;-140.05;100.00;61859.38;5087703;28;20452;-68
2022/06/07 02:25:09;;;;;;;0.30;0.30;;;;;;;-140.05;100.00;61859.38;5087604;28;20230;-67
2022/06/07 02:27:36;;;;;;;0.37;0.33;;;;;;;-140.05;100.00;61859.38;5089536;28;20477;-67
2022/06/07 02:30:03;;;;;;;0.33;0.33;;;;;;;-140.05;100.00;61859.38;5089525;28;20441;-66
2022/06/07 02:32:33;;;;;;;0.83;0.80;;;;;;;-140.05;100.00;61859.38;5089121;28;20191;-67
2022/06/07 02:35:02;;;;;;;0.67;0.60;;;;;;;-140.05;100.00;61859.38;5090946;28;20202;-66
2022/06/07 02:37:32;;;;;;;0.43;0.43;;;;;;;-140.05;100.00;61859.38;5091319;28;20472;-65
2022/06/07 02:39:59;;;;;;;0.60;0.60;;;;;;;-140.05;100.00;61859.38;5087954;28;20441;-66
2022/06/07 02:42:27;;;;;;;0.67;0.67;;;;;;;-140.05;100.00;61859.38;5089090;28;20449;-68
2022/06/07 02:44:57;;;;;;;0.43;0.43;;;;;;;-140.05;100.00;61859.38;5087678;28;20230;-65
2022/06/07 02:47:25;;;;;;;0.70;0.70;;;;;;;-140.05;100.00;61859.38;5087721;28;20481;-68
2022/06/07 02:49:57;;;;;;;0.40;0.33;;;;;;;-140.05;100.00;61859.38;5088125;28;20440;-65
2022/06/07 02:52:24;;;;;;;0.70;0.63;;;;;;;-140.05;100.00;61859.38;5087568;28;20256;-67
2022/06/07 02:55:03;;;;;;;0.50;0.50;;;;;;;-140.05;100.00;61859.38;5087694;28;20455;-68
2022/06/07 02:57:30;;;;;;;0.30;0.30;;;;;;;-140.05;100.00;61859.38;5089625;28;20708;-65
2022/06/07 03:00:08;;;;;;;0.70;0.67;;;;;;;-140.05;100.00;61859.38;5091746;28;20448;-65
2022/06/07 03:02:35;;;;;;;0.60;0.60;;;;;;;-140.05;100.00;61859.38;5091042;28;20203;-68
2022/06/07 03:05:03;;;;;;;0.70;0.70;;;;;;;-140.05;100.00;61859.38;5092863;28;20681;-65
2022/06/07 03:07:30;;;;;;;1.20;0.90;;;;;;;-140.05;100.00;61859.38;5092547;28;20315;-69
2022/06/07 03:09:56;;;;;;;1.27;1.17;;;;;;;-140.05;100.00;61859.38;5091583;28;20513;-65
2022/06/07 03:12:23;;;;;;;1.20;1.10;;;;;;;-140.05;100.00;61859.38;5091088;28;20678;-68
2022/06/07 03:14:50;;;;;;;0.70;0.70;;;;;;;-140.05;100.00;61859.38;5091599;28;20599;-65
2022/06/07 03:17:17;;;;;;;0.20;0.20;;;;;;;-140.05;100.00;61859.38;5091350;28;20584;-65
2022/06/07 03:19:46;;;;;;;1.03;0.70;;;;;;;-140.05;100.00;61859.38;5091380;28;20207;-66
2022/06/07 03:22:14;;;;;;;0.83;0.73;;;;;;;-140.05;100.00;61859.38;5091296;28;20195;-67
2022/06/07 03:24:43;;;;;;;0.40;0.40;;;;;;;-140.05;100.00;61859.38;5090729;28;20490;-65
2022/06/07 03:27:12;;;;;;;1.10;1.00;;;;;;;-140.05;100.00;61859.38;5092383;28;20211;-68
2022/06/07 03:29:39;;;;;;;1.37;1.20;;;;;;;-140.05;100.00;61859.38;5091136;28;20203;-67
2022/06/07 03:32:09;;;;;;;0.23;0.23;;;;;;;-140.05;100.00;61859.38;5090852;28;20696;-68
2022/06/07 03:34:39;;;;;;;0.70;0.70;;;;;;;-140.05;100.00;61859.38;5090755;28;20211;-67
2022/06/07 03:37:07;;;;;;;0.70;0.70;;;;;;;-140.05;100.00;61859.38;5092364;28;20217;-65
2022/06/07 03:39:36;;;;;;;0.50;0.50;;;;;;;-140.05;100.00;61859.38;5108383;28;20215;-67
2022/06/07 03:42:03;;;;;;;0.97;0.60;;;;;;;-140.05;100.00;61859.38;5092213;28;20198;-66
2022/06/07 03:44:31;;;;;;;1.03;0.93;;;;;;;-140.05;100.00;61859.38;5097668;28;20187;-67
2022/06/07 03:47:08;;;;;;;1.03;0.93;;;;;;;-140.05;100.00;61859.38;5090528;28;20276;-68
2022/06/07 03:49:34;;;;;;;1.40;1.30;;;;;;;-140.05;100.00;61859.38;5090902;28;20672;-69
2022/06/07 03:52:02;;;;;;;0.90;0.90;;;;;;;-140.05;100.00;61859.38;5090997;28;20206;-67
2022/06/07 03:54:34;;;;;;;0.40;0.40;;;;;;;-140.05;100.00;61859.38;5090653;28;20214;-67
2022/06/07 03:57:03;;;;;;;0.60;0.60;;;;;;;-140.05;100.00;61859.38;5090599;28;20231;-66
2022/06/07 03:59:31;;;;;;;0.73;0.73;;;;;;;-140.05;100.00;61859.38;5091619;28;20200;-68
2022/06/07 04:01:58;;;;;;;0.80;0.80;;;;;;;-140.05;100.00;61859.38;5089859;28;20195;-67
2022/06/07 04:04:26;;;;;;;1.37;0.77;;;;;;;-140.05;100.00;61859.38;5090867;28;20191;-68
2022/06/07 04:09:50;;;;;;;0.60;0.60;;;;;;;-140.05;100.00;61859.38;5090722;28;20205;-70
2022/06/07 04:12:35;;;;;;;0.67;0.67;;;;;;;-140.05;100.00;61859.38;5090655;28;20437;-66
2022/06/07 04:15:02;;;;;;;0.83;0.80;;;;;;;-140.05;100.00;61859.38;5092559;28;20244;-65
2022/06/07 04:17:30;;;;;;;0.43;0.40;;;;;;;-140.05;100.00;61859.38;5090190;28;20293;-69
2022/06/07 04:20:17;;;;;;;1.17;1.10;;;;;;;-140.05;100.00;61859.38;5104253;28;20207;-65
2022/06/07 04:22:44;;;;;;;0.70;0.70;;;;;;;-140.05;100.00;61859.38;5091444;28;20460;-64
2022/06/07 04:25:11;;;;;;;0.40;0.40;;;;;;;-140.05;100.00;61859.38;5088838;28;20713;-66
2022/06/07 04:27:41;;;;;;;0.90;0.83;;;;;;;-140.05;100.00;61859.38;5090869;28;20235;-71
2022/06/07 04:30:09;;;;;;;0.30;0.30;;;;;;;-140.05;100.00;61859.38;5090024;28;20203;-66
2022/06/07 04:32:45;;;;;;;1.97;1.67;;;;;;;-140.05;100.00;61859.38;5089454;28;20218;-69
2022/06/07 04:35:17;;;;;;;1.97;1.40;;;;;;;-140.05;100.00;61859.38;5090003;28;20236;-69
2022/06/07 04:37:49;;;;;;;2.40;1.10;;;;;;;-140.05;100.00;61859.38;5089910;28;20207;-68
2022/06/07 04:40:17;;;;;;;2.20;1.57;;;;;;;-140.05;100.00;61859.38;5089864;28;20234;-66
2022/06/07 04:42:45;;;;;;;0.50;0.50;;;;;;;-140.05;100.00;61859.38;5094712;28;20195;-66
2022/06/07 04:45:20;;;;;;;1.53;0.80;;;;;;;-140.05;100.00;61859.38;5096050;28;20203;-69
2022/06/07 04:48:07;;;;;;;1.73;0.93;;;;;;;-140.05;100.00;61859.38;5097373;28;20231;-64
2022/06/07 04:50:42;;;;;;;1.77;1.40;;;;;;;-140.05;100.00;61859.38;5100620;28;20199;-63
2022/06/07 04:53:11;;;;;;;3.33;2.57;;;;;;;-140.05;100.00;61859.38;5098537;28;20658;-62
2022/06/07 04:55:38;;;;;;;3.43;2.33;;;;;;;-140.05;100.00;61859.38;5101612;28;20211;-65
2022/06/07 04:58:07;;;;;;;7.40;4.77;;;;;;;-140.05;100.00;61859.38;5098753;28;20222;-70
2022/06/07 05:00:34;;;;;;;2.13;1.87;;;;;;;-140.05;100.00;61859.38;5099719;28;20234;-67
2022/06/07 05:03:02;;;;;;;1.83;1.17;;;;;;;-140.05;100.00;61859.38;5097784;28;20207;-66
2022/06/07 05:05:34;;;;;;;1.33;1.23;;;;;;;-140.05;100.00;61859.38;5097052;28;20207;-67
2022/06/07 05:08:06;;;;;;;6.00;5.40;;;;;;;-140.05;100.00;61859.38;5095965;28;20592;-63
2022/06/07 05:10:51;;;;;;;4.30;3.50;;;;;;;-140.05;100.00;61859.38;5097912;28;20184;-66
2022/06/07 05:13:18;;;;;;;1.50;1.40;;;;;;;-140.05;100.00;61859.38;5097829;28;20202;-66
2022/06/07 05:15:55;;;;;;;1.30;0.97;;;;;;;-140.05;100.00;61859.38;5095845;28;20222;-65
2022/06/07 05:18:25;;;;;;;2.63;1.40;;;;;;;-140.05;100.00;61859.38;5100289;28;20217;-65
2022/06/07 05:20:53;;;;;;;1.10;1.10;;;;;;;-140.05;100.00;61859.38;5097954;28;20203;-62
2022/06/07 05:23:21;;;;;;;2.03;1.57;;;;;;;-140.05;100.00;61859.38;5098547;28;20225;-64
2022/06/07 05:26:08;;;;;;;1.07;0.97;;;;;;;-140.05;100.00;61859.38;5097796;28;20296;-66
2022/06/07 05:28:40;;;;;;;1.07;0.90;;;;;;;-140.05;100.00;61859.38;5096722;28;20225;-65
2022/06/07 05:31:10;;;;;;;1.17;1.07;;;;;;;-140.05;100.00;61859.38;5097164;28;20302;-60
2022/06/07 05:33:45;;;;;;;0.43;0.43;;;;;;;-140.05;100.00;61859.38;5091639;28;20659;-63
2022/06/07 05:36:13;;;;;;;1.67;1.47;;;;;;;-140.05;100.00;61859.38;5090595;28;20210;-62
2022/06/07 05:38:47;;;;;;;1.30;1.20;;;;;;;-140.05;100.00;61859.38;5087899;28;20191;-63
2022/06/07 05:41:20;;;;;;;1.00;0.77;;;;;;;-140.05;100.00;61859.38;5087558;28;20191;-66
2022/06/07 05:43:50;;;;;;;0.77;0.77;;;;;;;-140.05;100.00;61859.38;5087761;28;20259;-66
2022/06/07 05:46:25;;;;;;;2.10;1.73;;;;;;;-140.05;100.00;61859.38;5088767;28;20653;-65
2022/06/07 05:48:57;;;;;;;1.13;1.10;;;;;;;-140.05;100.00;61859.38;5088600;28;20263;-65
2022/06/07 05:51:49;;;;;;;2.30;1.57;;;;;;;-140.05;100.00;61859.38;5089116;28;20218;-63
2022/06/07 05:54:17;;;;;;;3.00;1.50;;;;;;;-140.05;100.00;61859.38;5088278;28;20206;-63
2022/06/07 05:56:44;;;;;;;1.27;1.00;;;;;;;-140.05;100.00;61859.38;5088717;28;20209;-62
2022/06/07 05:59:11;;;;;;;1.93;1.47;;;;;;;-140.05;100.00;61859.38;5090029;28;20286;-64
2022/06/07 06:01:39;;;;;;;1.10;1.10;;;;;;;-140.05;100.00;61859.38;5090629;28;20195;-64
2022/06/07 06:04:08;;;;;;;2.00;1.33;;;;;;;-140.05;100.00;61859.38;5088041;28;20210;-63
2022/06/07 06:06:41;;;;;;;3.03;1.30;;;;;;;-140.05;100.00;61859.38;5088489;28;20203;-65
2022/06/07 06:11:57;;;;;;;1.10;1.10;;;;;;;-140.05;100.00;61859.38;5088477;28;20268;-64
2022/06/07 06:14:39;;;;;;;1.83;1.73;;;;;;;-140.05;100.00;61859.38;5087815;28;20664;-62
2022/06/07 06:17:15;;;;;;;1.03;0.90;;;;;;;-140.05;100.00;61859.38;5088233;28;20300;-66
2022/06/07 06:19:48;;;;;;;1.00;1.00;;;;;;;-140.05;100.00;61859.38;5088169;28;20260;-66
2022/06/07 06:22:16;;;;;;;2.03;1.90;;;;;;;-140.05;100.00;61859.38;5072070;28;20207;-64
2022/06/07 06:24:50;;;;;;;1.20;1.10;;;;;;;-140.05;100.00;61859.38;5087780;28;20250;-65
2022/06/07 06:27:18;;;;;;;1.27;0.90;;;;;;;-140.05;100.00;61859.38;5089711;28;20186;-64
2022/06/07 06:29:47;;;;;;;1.77;1.23;;;;;;;-140.05;100.00;61859.38;5088049;28;20696;-66
2022/06/07 06:32:14;;;;;;;1.57;1.10;;;;;;;-140.05;100.00;61859.38;5091264;28;20171;-63
2022/06/07 06:34:44;;;;;;;2.13;1.33;;;;;;;-140.05;100.00;61859.38;5092596;28;20713;-66
2022/06/07 06:37:13;;;;;;;1.30;1.20;;;;;;;-140.05;100.00;61859.38;5092516;28;20658;-64
2022/06/07 06:39:42;;;;;;;1.47;1.30;;;;;;;-140.05;100.00;61859.38;5092398;28;20194;-63
2022/06/07 06:42:09;;;;;;;1.10;1.10;;;;;;;-140.05;100.00;61859.38;5092155;28;20230;-65
2022/06/07 06:45:06;;;;;;;3.50;1.77;;;;;;;-140.05;100.00;61859.38;5093378;28;20198;-63
2022/06/07 06:47:34;;;;;;;1.60;1.50;;;;;;;-140.05;100.00;61859.38;5091646;28;20222;-62
2022/06/07 06:50:03;;;;;;;1.57;1.47;;;;;;;-140.05;100.00;61859.38;5093068;28;20187;-62
2022/06/07 06:52:29;;;;;;;3.33;2.07;;;;;;;-140.05;100.00;61859.38;5093666;28;20654;-63
2022/06/07 06:54:56;;;;;;;1.43;1.33;;;;;;;-140.05;100.00;61859.38;5091669;28;20211;-62
2022/06/07 06:57:24;;;;;;;1.03;1.03;;;;;;;-140.05;100.00;61859.38;5092004;28;20199;-61
2022/06/07 06:59:57;;;;;;;1.40;1.33;;;;;;;-140.05;100.00;61859.38;5093801;28;20209;-64
2022/06/07 07:02:24;;;;;;;0.77;0.77;;;;;;;-140.05;100.00;61859.38;5092109;28;20278;-64
2022/06/07 07:05:00;;;;;;;2.17;1.00;;;;;;;-140.05;100.00;61859.38;5091751;28;20206;-63
2022/06/07 07:07:28;;;;;;;2.53;1.27;;;;;;;-140.05;100.00;61859.38;5091828;28;20213;-63
2022/06/07 07:09:56;;;;;;;1.60;1.50;;;;;;;-140.05;100.00;61859.38;5091633;28;20226;-62
2022/06/07 07:12:24;;;;;;;1.83;1.50;;;;;;;-140.05;100.00;61859.38;5092688;28;20605;-64
2022/06/07 07:14:59;;;;;;;0.93;0.80;;;;;;;-140.05;100.00;61859.38;5091425;28;20202;-63
2022/06/07 07:17:39;;;;;;;1.30;1.20;;;;;;;-140.05;100.00;61859.38;5091176;28;20586;-63
2022/06/07 07:20:06;;;;;;;2.17;1.30;;;;;;;-140.05;100.00;61859.38;5091108;28;20221;-63
2022/06/07 07:22:37;;;;;;;1.07;1.07;;;;;;;-140.05;100.00;61859.38;5091121;28;20335;-62
2022/06/07 07:25:06;;;;;;;1.23;1.13;;;;;;;-140.05;100.00;61859.38;5090255;28;20757;-63
2022/06/07 07:27:33;;;;;;;1.23;0.97;;;;;;;-140.05;100.00;61859.38;5090030;28;20202;-64
2022/06/07 07:30:01;;;;;;;2.63;1.57;;;;;;;-140.05;100.00;61859.38;5089696;28;20242;-64
2022/06/07 07:32:33;;;;;;;1.27;1.20;;;;;;;-140.05;100.00;61859.38;5089962;28;20291;-63
2022/06/07 07:35:01;;;;;;;1.83;1.73;;;;;;;-140.05;100.00;61859.38;5089698;28;20206;-62
2022/06/07 07:37:34;;;;;;;1.30;1.20;;;;;;;-140.05;100.00;61859.38;5089816;28;20203;-63
2022/06/07 07:40:11;;;;;;;0.87;0.87;;;;;;;-140.05;100.00;61859.38;5089721;28;20570;-64
2022/06/07 07:42:39;;;;;;;1.20;1.10;;;;;;;-140.05;100.00;61859.38;5089567;28;20207;-63
2022/06/07 07:45:12;;;;;;;0.47;0.47;;;;;;;-140.05;100.00;61859.38;5090107;28;20261;-64
2022/06/07 07:47:42;;;;;;;0.73;0.73;;;;;;;-140.05;100.00;61859.38;5090924;28;20682;-64
2022/06/07 07:50:11;;;;;;;2.33;1.87;;;;;;;-140.05;100.00;61859.38;5091762;28;20202;-62
2022/06/07 07:52:42;;;;;;;1.17;1.07;;;;;;;-140.05;100.00;61859.38;5090191;28;20659;-63
2022/06/07 07:55:13;;;;;;;1.10;1.00;;;;;;;-140.05;100.00;61859.38;5090775;28;20191;-62
2022/06/07 07:57:42;;;;;;;1.83;1.27;;;;;;;-140.05;100.00;61859.38;5089874;28;20251;-66
2022/06/07 08:00:13;;;;;;;0.90;0.90;;;;;;;-140.05;100.00;61859.38;5089598;28;20260;-63
2022/06/07 08:02:40;;;;;;;10.37;4.07;;;;;;;-140.05;100.00;61859.38;5091021;28;20302;-62
2022/06/07 08:05:20;;;;;;;2.30;2.03;;;;;;;-140.05;100.00;61859.38;5089015;28;20191;-62
2022/06/07 08:07:48;;;;;;;1.60;1.40;;;;;;;-140.05;100.00;61859.38;5089448;28;20984;-62
2022/06/07 08:10:24;;;;;;;0.93;0.70;;;;;;;-140.05;100.00;61859.38;5090536;28;20194;-63
2022/06/07 08:12:56;;;;;;;0.67;0.50;;;;;;;-140.05;100.00;61859.38;5090477;28;20605;-62
2022/06/07 08:15:23;;;;;;;0.80;0.80;;;;;;;-140.05;100.00;61859.38;5090134;28;20190;-63
2022/06/07 08:17:52;;;;;;;0.87;0.87;;;;;;;-140.05;100.00;61859.38;5090345;28;20209;-64
2022/06/07 08:20:20;;;;;;;0.47;0.47;;;;;;;-140.05;100.00;61859.38;5090390;28;20191;-64
2022/06/07 08:22:49;;;;;;;1.30;0.80;;;;;;;-140.05;100.00;61859.38;5090468;28;20256;-62
2022/06/07 08:25:19;;;;;;;0.60;0.60;;;;;;;-140.05;100.00;61859.38;5052060;28;1134312;-62
2022/06/07 08:27:46;;;;;;;0.67;0.67;;;;;;;-140.05;100.00;61859.38;5091902;28;20198;-63
2022/06/07 08:30:13;;;;;;;0.83;0.73;;;;;;;-140.05;100.00;61859.38;5091658;28;20218;-63
2022/06/07 08:32:43;;;;;;;0.87;0.80;;;;;;;-140.05;100.00;61859.38;5091555;28;20222;-64
2022/06/07 08:37:59;;;;;;;0.67;0.63;;;;;;;-140.05;100.00;61859.38;5091043;28;20578;-62
2022/06/07 08:40:34;;;;;;;2.30;1.27;;;;;;;-140.05;100.00;61859.38;5091092;28;20253;-63
2022/06/07 08:43:11;;;;;;;0.90;0.80;;;;;;;-140.05;100.00;61859.38;5090949;28;20264;-62
2022/06/07 08:45:40;;;;;;;0.50;0.50;;;;;;;-140.05;100.00;61859.38;5090828;28;20682;-63
2022/06/07 08:48:26;;;;;;;0.60;0.40;;;;;;;-140.05;100.00;61859.38;5090671;28;20908;-63
2022/06/07 08:51:12;;;;;;;0.40;0.40;;;;;;;-140.05;100.00;61859.38;5091094;28;20191;-64
2022/06/07 08:53:42;;;;;;;1.10;0.83;;;;;;;-140.05;100.00;61859.38;5090711;28;20195;-63
2022/06/07 08:56:15;;;;;;;1.20;1.00;;;;;;;-140.05;100.00;61859.38;5090217;28;20221;-65
2022/06/07 08:58:47;;;;;;;0.87;0.60;;;;;;;-140.05;100.00;61859.38;5090654;28;20199;-64
2022/06/07 09:01:34;;;;;;;2.50;1.33;;;;;;;-140.05;100.00;61859.38;5090613;28;20222;-64
2022/06/07 09:04:14;;;;;;;1.30;0.70;;;;;;;-140.05;100.00;61859.38;5090465;28;20243;-63
2022/06/07 09:06:45;;;;;;;0.40;0.40;;;;;;;-140.05;100.00;61859.38;5090636;28;20199;-63
2022/06/07 09:09:15;;;;;;;0.90;0.67;;;;;;;-140.05;100.00;61859.38;5090245;28;20789;-64
2022/06/07 09:14:42;;;;;;;0.60;0.53;;;;;;;-140.05;100.00;61859.38;5090037;28;20259;-64
2022/06/07 09:17:18;;;;;;;0.37;0.37;;;;;;;-140.05;100.00;61859.38;5090771;28;20199;-64
2022/06/07 09:19:48;;;;;;;0.50;0.50;;;;;;;-140.05;100.00;61859.38;5090413;28;20191;-64
2022/06/07 09:22:25;;;;;;;0.77;0.50;;;;;;;-140.05;100.00;61859.38;5091447;28;20600;-63
2022/06/07 09:25:06;;;;;;;0.40;0.40;;;;;;;-140.05;100.00;61859.38;5093770;28;20603;-63
2022/06/07 09:27:33;;;;;;;0.63;0.63;;;;;;;-140.05;100.00;61859.38;5092111;28;20195;-64
2022/06/07 09:30:19;;;;;;;0.20;0.20;;;;;;;-140.05;100.00;61859.38;5090072;28;20291;-63
2022/06/07 09:32:50;;;;;;;0.50;0.50;;;;;;;-140.05;100.00;61859.38;5090267;28;20252;-62
2022/06/07 09:35:35;;;;;;;0.40;0.40;;;;;;;-140.05;100.00;61859.38;5090178;28;20199;-62
2022/06/07 09:38:16;;;;;;;0.70;0.70;;;;;;;-140.05;100.00;61859.38;5090030;28;20681;-63
2022/06/07 09:44:23;;;;;;;0.90;0.73;;;;;;;-140.05;100.00;61859.38;5090411;28;20194;-64
2022/06/07 09:47:11;;;;;;;0.50;0.50;;;;;;;-140.05;100.00;61859.38;5090872;28;20201;-63
2022/06/07 09:49:45;;;;;;;0.87;0.83;;;;;;;-140.05;100.00;61859.38;5090218;28;20238;-64
2022/06/07 09:52:16;;;;;;;0.63;0.50;;;;;;;-140.05;100.00;61859.38;5090126;28;20612;-64
2022/06/07 09:54:46;;;;;;;0.30;0.30;;;;;;;-140.05;100.00;61859.38;5089684;28;20685;-64
2022/06/07 09:57:32;;;;;;;0.80;0.80;;;;;;;-140.05;100.00;61859.38;5090453;28;20552;-65
2022/06/07 10:00:05;;;;;;;0.50;0.50;;;;;;;-140.05;100.00;61859.38;5089814;28;20632;-65
2022/06/07 10:03:13;;;;;;;0.60;0.60;;;;;;;-140.05;100.00;61859.38;5090124;28;20376;-63
2022/06/07 10:06:08;;;;;;;0.60;0.60;;;;;;;-140.05;100.00;61859.38;5070343;28;20199;-65
2022/06/07 10:09:06;;;;;;;0.30;0.30;;;;;;;-140.05;100.00;61859.38;5087113;28;21427;-64
2022/06/07 10:11:53;;;;;;;0.23;0.23;;;;;;;-140.05;100.00;61859.38;5089999;28;20556;-63
2022/06/07 10:14:34;;;;;;;0.50;0.50;;;;;;;-140.05;100.00;61859.38;5089136;28;20190;-63
2022/06/07 10:17:22;;;;;;;0.80;0.67;;;;;;;-140.05;100.00;61859.38;5089427;28;20199;-62
2022/06/07 10:20:08;;;;;;;0.60;0.60;;;;;;;-140.05;100.00;61859.38;5089558;28;20205;-64
2022/06/07 10:23:06;;;;;;;0.67;0.67;;;;;;;-140.05;100.00;61859.38;5089724;28;20263;-63
2022/06/07 10:26:02;;;;;;;0.80;0.80;;;;;;;-140.05;100.00;61859.38;5087810;28;20233;-64
2022/06/07 10:28:47;;;;;;;0.90;0.90;;;;;;;-140.05;100.00;61859.38;5089576;28;20221;-65
2022/06/07 10:31:34;;;;;;;1.03;0.70;;;;;;;-140.05;100.00;61859.38;5089636;28;20256;-63
2022/06/07 10:34:06;;;;;;;0.70;0.70;;;;;;;-140.05;100.00;61859.38;5089360;28;20210;-63
2022/06/07 10:36:42;;;;;;;0.70;0.70;;;;;;;-140.05;100.00;61859.38;5089451;28;20194;-64
2022/06/07 10:39:38;;;;;;;0.67;0.67;;;;;;;-140.05;100.00;61859.38;5089639;28;20526;-64
2022/06/07 10:42:11;;;;;;;0.50;0.50;;;;;;;-140.05;100.00;61859.38;5089268;28;20670;-63
2022/06/07 10:44:58;;;;;;;0.60;0.60;;;;;;;-140.05;100.00;61859.38;5089288;28;20304;-65
2022/06/07 10:47:38;;;;;;;0.60;0.60;;;;;;;-140.05;100.00;61859.38;5089624;28;20206;-62
2022/06/07 10:50:24;;;;;;;0.93;0.93;;;;;;;-140.05;100.00;61859.38;5089153;28;20275;-64
2022/06/07 10:53:27;;;;;;;0.30;0.30;;;;;;;-140.05;100.00;61859.38;5089468;28;20198;-63
2022/06/07 10:56:19;;;;;;;0.90;0.90;;;;;;;-140.05;100.00;61859.38;5084983;28;20203;-62
2022/06/07 10:58:50;;;;;;;0.57;0.57;;;;;;;-140.05;100.00;61859.38;5089469;28;20211;-64
2022/06/07 11:01:27;;;;;;;0.43;0.43;;;;;;;-140.05;100.00;61859.38;5089048;28;20202;-65
2022/06/07 11:04:05;;;;;;;0.50;0.50;;;;;;;-140.05;100.00;61859.38;5089454;28;20272;-64
2022/06/07 11:09:47;;;;;;;0.37;0.37;;;;;;;-140.05;100.00;61859.38;5089005;28;20215;-66
2022/06/07 11:12:19;;;;;;;1.03;0.77;;;;;;;-140.05;100.00;61859.38;5089439;28;20206;-63
2022/06/07 11:14:55;;;;;;;0.70;0.70;;;;;;;-140.05;100.00;61859.38;5089126;28;20310;-69
2022/06/07 11:17:24;;;;;;;0.47;0.47;;;;;;;-140.05;100.00;61859.38;5089690;28;20187;-64
2022/06/07 11:19:53;;;;;;;0.73;0.73;;;;;;;-140.05;100.00;61859.38;5093021;28;20564;-63
2022/06/07 11:22:22;;;;;;;0.70;0.70;;;;;;;-140.05;100.00;61859.38;5092992;28;20187;-63
2022/06/07 11:25:01;;;;;;;0.87;0.80;;;;;;;-140.05;100.00;61859.38;5092268;28;20242;-62
2022/06/07 11:27:30;;;;;;;1.03;0.70;;;;;;;-140.05;100.00;61859.38;5093038;28;20206;-63
2022/06/07 11:30:21;;;;;;;0.80;0.70;;;;;;;-140.05;100.00;61859.38;5092523;28;20215;-64
2022/06/07 11:32:57;;;;;;;0.60;0.60;;;;;;;-140.05;100.00;61859.38;5093048;28;20205;-66
2022/06/07 11:36:03;;;;;;;0.73;0.70;;;;;;;-140.05;100.00;61859.38;5094354;28;20198;-63
2022/06/07 11:38:33;;;;;;;0.70;0.60;;;;;;;-140.05;100.00;61859.38;5092311;28;20252;-63
2022/06/07 11:41:37;;;;;;;1.53;1.13;;;;;;;-140.05;100.00;61859.38;5092332;28;20199;-66
2022/06/07 11:44:12;;;;;;;1.37;0.80;;;;;;;-140.05;100.00;61859.38;5092142;28;20711;-62
2022/06/07 11:46:52;;;;;;;0.77;0.70;;;;;;;-140.05;100.00;61859.38;5092003;28;20231;-63
2022/06/07 11:49:24;;;;;;;1.07;1.03;;;;;;;-140.05;100.00;61859.38;5091827;28;20800;-63
2022/06/07 11:52:13;;;;;;;0.50;0.50;;;;;;;-140.05;100.00;61859.38;5092266;28;20218;-65
2022/06/07 11:54:45;;;;;;;0.43;0.40;;;;;;;-140.05;100.00;61859.38;5092053;28;20199;-64
2022/06/07 11:57:32;;;;;;;0.93;0.93;;;;;;;-140.05;100.00;61859.38;5092084;28;20593;-65
2022/06/07 12:00:03;;;;;;;0.50;0.50;;;;;;;-140.05;100.00;61859.38;5091620;28;20195;-64
2022/06/07 12:02:38;;;;;;;0.50;0.50;;;;;;;-140.05;100.00;61859.38;5091603;28;20226;-62